Latest Weather Observations for Kingfish B

IDV60801

Issued at 12:42 pm EDT Wednesday 21 November 2018 (issued every 10 minutes, with the page automatically refreshed every 10 minutes)

About weather observations | Map of weather stations | Latest weather observations for VIC | Other Formats
Station Details ID: 400139 Name: KINGFISH B (PLATFORM) Lat: -38.60 Lon: 148.19 Height: 31.4 m
Data from the previous 72 hours. | See also: Recent months for locations in Victoria
Date/Time
EDT
Temp
°C
App
Temp
°C
Dew
Point
°C
Rel
Hum
%
Delta-T
°C
Wind Press
QNH
hPa
Press
MSL
hPa
Rain since
9am
mm
Dir  Spd
km/h
Gust
km/h
Spd
kts
Gust
kts
21/12:40pm 17.5 12.6 12.5 72 2.8 SW 30 37 16 20 999.7 - -
21/12:30pm 17.7 12.4 12.5 71 2.9 SW 32 37 17 20 999.6 - -
21/12:20pm 18.0 12.9 13.1 73 2.8 SW 32 35 17 19 999.8 - -
21/12:10pm 17.8 12.9 13.6 76 2.4 SW 32 35 17 19 999.7 - -
21/12:00pm 17.4 12.9 13.7 79 2.1 SW 30 35 16 19 999.7 - -
21/11:50am 17.2 12.3 13.8 80 1.9 SW 32 37 17 20 999.6 - -
21/11:40am 17.0 12.2 13.9 82 1.8 SW 32 37 17 20 999.6 - -
21/11:30am 16.7 11.7 14.0 84 1.5 SW 33 37 18 20 999.5 - -
21/11:20am 16.4 11.4 13.9 85 1.4 SW 33 37 18 20 999.5 - -
21/11:10am 16.5 11.6 14.2 86 1.3 SW 33 39 18 21 999.5 - -
21/11:00am 16.4 11.1 14.3 87 1.2 SW 35 41 19 22 999.3 - -
21/10:50am 16.2 10.6 14.4 89 1.0 SW 37 44 20 24 999.2 - -
21/10:40am 15.9 10.6 14.2 90 1.0 SW 35 44 19 24 999.4 - -
21/10:30am 15.8 10.1 14.2 90 0.9 SW 37 46 20 25 999.7 - -
21/10:20am 16.0 9.3 14.5 91 0.9 SW 43 50 23 27 999.2 - -
21/10:10am 16.0 10.1 14.6 91 0.8 SW 39 44 21 24 999.3 - -
21/10:00am 16.1 10.6 14.7 91 0.8 SW 37 43 20 23 999.8 - -
21/09:50am 16.1 10.6 14.8 92 0.7 SW 37 43 20 23 999.6 - -
21/09:40am 16.2 10.8 15.0 93 0.7 SW 37 43 20 23 999.4 - -
21/09:30am 16.1 11.0 14.9 93 0.7 SW 35 43 19 23 999.3 - -
21/09:20am 16.0 10.9 14.8 93 0.7 SW 35 44 19 24 999.2 - -
21/09:10am 16.4 12.4 15.2 93 0.7 SW 30 39 16 21 998.9 - -
21/09:00am 16.3 15.9 15.2 93 0.6 SW 11 22 6 12 998.4 - -
21/08:40am 16.3 15.5 15.1 93 0.7 WSW 13 17 7 9 998.8 - -
21/08:30am 16.3 15.9 15.1 93 0.7 SW 11 17 6 9 998.7 - -
21/08:20am 16.1 15.6 14.9 93 0.7 SSW 11 15 6 8 998.2 - -
21/08:10am 16.0 15.5 14.8 93 0.7 S 11 13 6 7 997.9 - -
21/08:00am 16.0 15.0 14.7 92 0.7 SSE 13 19 7 10 997.6 - -
21/07:50am 16.0 13.9 14.6 91 0.8 SSE 19 22 10 12 997.4 - -
21/07:40am 16.2 13.8 14.4 89 1.0 S 20 24 11 13 997.7 - -
21/07:30am 16.4 12.5 14.3 87 1.2 SSW 28 33 15 18 997.8 - -
21/06:50am 18.1 14.7 14.8 81 1.9 SW 26 30 14 16 997.6 - -
21/06:40am 18.3 14.2 14.9 80 2.0 SW 30 35 16 19 997.2 - -
21/06:30am 18.5 15.2 15.1 80 2.0 WSW 26 35 14 19 996.9 - -
21/06:20am 18.6 15.5 15.6 83 1.8 WNW 26 33 14 18 996.7 - -
21/06:10am 18.0 15.6 15.5 85 1.5 WNW 22 63 12 34 996.5 - -
21/06:00am 17.8 14.6 15.3 85 1.5 N 26 43 14 23 995.6 - -
21/05:50am 17.8 12.1 15.2 85 1.5 NNE 39 44 21 24 995.0 - -
21/05:40am 17.8 12.1 15.1 84 1.6 NNE 39 43 21 23 994.9 - -
21/05:30am 17.8 12.0 14.9 83 1.7 NNE 39 43 21 23 995.1 - -
21/05:20am 17.8 12.3 14.7 82 1.8 NNE 37 41 20 22 995.2 - -
21/04:20am 17.5 13.7 14.7 83 1.6 NE 28 32 15 17 995.7 - -
21/04:10am 17.4 14.4 14.7 84 1.6 NE 24 28 13 15 995.8 - -
21/04:00am 17.3 14.3 14.7 85 1.5 NNE 24 30 13 16 996.3 - -
21/03:50am 17.2 13.4 14.7 85 1.4 NNE 28 30 15 16 996.8 - -
21/03:40am 17.2 13.1 14.8 86 1.4 N 30 32 16 17 997.3 - -
21/03:30am 17.3 12.8 14.9 86 1.4 N 32 37 17 20 997.5 - -
21/03:20am 17.6 12.7 15.2 86 1.4 N 35 39 19 21 997.4 - -
21/03:10am 17.9 13.4 15.5 86 1.4 N 33 35 18 19 997.5 - -
21/03:00am 18.1 13.0 15.8 86 1.4 N 37 41 20 22 997.6 - -
21/02:50am 18.1 12.6 15.8 86 1.4 NNE 39 44 21 24 997.5 - -
21/02:40am 18.1 11.9 15.9 87 1.3 NE 43 48 23 26 997.6 - -
21/02:10am 18.1 11.4 16.0 87 1.2 NE 46 52 25 28 997.9 - -
21/02:00am 17.9 10.7 15.9 88 1.2 ENE 48 52 26 28 998.1 - -
21/01:50am 17.9 11.1 15.9 88 1.2 ENE 46 52 25 28 998.2 - -
21/01:30am 17.8 13.1 15.9 89 1.1 ENE 35 41 19 22 998.8 - -
21/01:20am 18.0 13.7 16.0 88 1.2 E 33 39 18 21 999.5 - -
21/01:10am 18.0 13.7 16.0 88 1.2 ENE 33 41 18 22 999.8 - -
21/01:00am 18.0 15.5 16.1 89 1.1 ENE 24 35 13 19 1000.4 - -
21/12:50am 18.0 15.1 16.0 88 1.2 ENE 26 33 14 18 1000.7 - -
21/12:40am 18.0 14.6 15.9 87 1.2 ENE 28 44 15 24 1000.6 - -
21/12:30am 18.0 12.5 15.8 87 1.3 E 39 48 21 26 1000.5 - -
21/12:00am 18.1 14.1 15.1 82 1.8 ESE 30 33 16 18 1001.7 - -
 
Date/Time
EDT
Temp
°C
App
Temp
°C
Dew
Point
°C
Rel
Hum
%
Delta-T
°C
Wind Press
QNH
hPa
Press
MSL
hPa
Rain since
9am
mm
Dir  Spd
km/h
Gust
km/h
Spd
kts
Gust
kts
20/11:50pm 18.0 13.3 14.9 82 1.8 SE 33 37 18 20 1001.6 - -
20/11:30pm 17.5 12.0 14.6 83 1.7 SE 37 39 20 21 1002.2 - -
20/11:20pm 17.6 13.0 14.7 83 1.7 SSE 32 35 17 19 1003.0 - -
20/11:10pm 17.5 14.4 14.5 82 1.7 SSE 24 33 13 18 1003.2 - -
20/11:00pm 17.3 13.3 14.1 81 1.8 SE 28 37 15 20 1002.9 - -
20/10:50pm 17.3 13.3 14.0 81 1.9 SSE 28 32 15 17 1002.8 - -
20/10:40pm 17.7 13.9 14.6 82 1.8 SSW 28 33 15 18 1004.1 - -
20/10:30pm 17.9 13.2 14.9 82 1.7 SW 33 37 18 20 1004.4 - -
20/10:20pm 18.2 13.8 15.2 82 1.8 WSW 32 37 17 20 1004.5 - -
20/10:10pm 18.2 13.7 15.4 84 1.6 SW 33 35 18 19 1004.3 - -
20/10:00pm 18.1 13.2 15.4 84 1.6 SW 35 39 19 21 1004.2 - -
20/09:50pm 18.3 14.5 15.7 85 1.5 WSW 30 37 16 20 1004.2 - -
20/09:40pm 18.3 15.7 15.8 85 1.5 SW 24 35 13 19 1004.1 - -
20/09:30pm 18.3 17.4 15.8 85 1.5 SSW 15 28 8 15 1004.0 - -
20/09:20pm 18.5 18.4 16.1 86 1.4 SW 11 30 6 16 1004.1 - -
20/09:10pm 18.3 18.2 15.9 86 1.4 WSW 11 30 6 16 1004.0 - -
20/09:00pm 18.2 18.5 15.9 86 1.4 N 9 24 5 13 1003.6 - -
20/08:50pm 18.2 17.3 15.9 86 1.4 NE 15 19 8 10 1003.3 - -
20/08:40pm 18.3 16.5 15.9 86 1.4 ENE 20 22 11 12 1002.8 - -
20/08:30pm 18.3 15.7 15.9 86 1.4 ENE 24 30 13 16 1002.5 - -
20/08:20pm 18.3 15.7 15.9 86 1.4 ENE 24 28 13 15 1002.3 - -
20/08:10pm 18.3 15.3 15.8 85 1.5 ENE 26 30 14 16 1002.1 - -
20/08:00pm 18.4 15.0 15.8 85 1.5 ENE 28 32 15 17 1002.0 - -
20/07:50pm 18.5 15.1 15.7 84 1.7 ENE 28 30 15 16 1001.9 - -
20/07:40pm 18.6 15.5 15.7 83 1.7 ENE 26 28 14 15 1001.9 - -
20/07:30pm 18.5 15.8 15.6 83 1.7 ENE 24 26 13 14 1002.1 - -
20/07:20pm 18.6 15.5 15.5 82 1.8 ENE 26 30 14 16 1002.3 - -
20/07:10pm 18.7 15.2 15.4 81 1.9 ENE 28 30 15 16 1002.5 - -
20/07:00pm 18.9 15.8 15.5 80 2.0 NE 26 26 14 14 1002.7 - -
20/06:50pm 19.0 15.9 15.5 80 2.1 NE 26 26 14 14 1002.8 - -
20/06:40pm 19.0 16.3 15.5 80 2.1 NE 24 26 13 14 1002.9 - -
20/06:20pm 19.1 16.8 15.6 80 2.1 NNE 22 24 12 13 1003.2 - -
20/06:10pm 19.1 16.4 15.7 80 2.0 NNE 24 26 13 14 1003.2 - -
20/06:00pm 19.1 16.5 15.9 82 1.9 NNE 24 28 13 15 1003.2 - -
20/05:50pm 18.8 16.5 15.7 82 1.8 NE 22 28 12 15 1003.1 - -
20/05:40pm 18.7 16.0 15.6 82 1.8 NE 24 32 13 17 1003.1 - -
20/05:30pm 18.8 15.3 15.5 81 1.9 ENE 28 35 15 19 1002.8 - -
20/05:20pm 18.9 14.4 15.5 80 2.0 ENE 33 37 18 20 1002.9 - -
20/05:10pm 19.0 14.7 15.4 79 2.1 ENE 32 37 17 20 1003.1 - -
20/05:00pm 19.1 15.9 15.4 79 2.2 ENE 26 30 14 16 1003.4 - -
20/04:50pm 19.5 16.5 15.8 79 2.2 ENE 26 32 14 17 1003.7 - -
20/04:40pm 19.3 16.2 15.7 79 2.1 ENE 26 30 14 16 1003.7 - -
20/04:30pm 19.0 16.2 15.3 79 2.2 ENE 24 28 13 15 1003.9 - -
20/04:20pm 19.1 15.5 15.3 78 2.2 ENE 28 32 15 17 1004.1 - -
20/04:10pm 19.2 15.2 15.2 77 2.4 ENE 30 32 16 17 1004.3 - -
20/04:00pm 19.3 15.3 15.3 77 2.4 ENE 30 32 16 17 1004.3 - -
20/03:50pm 19.9 16.1 15.8 77 2.4 ENE 30 32 16 17 1004.4 - -
20/03:40pm 19.1 15.2 15.5 79 2.1 ENE 30 32 16 17 1004.5 - -
20/03:30pm 18.9 14.5 15.1 78 2.2 ENE 32 33 17 18 1004.6 - -
20/03:20pm 19.0 14.6 15.1 78 2.3 ENE 32 33 17 18 1004.6 - -
20/03:10pm 18.9 14.4 15.0 78 2.3 ENE 32 33 17 18 1004.8 - -
20/03:00pm 19.0 14.5 14.9 77 2.4 ENE 32 35 17 19 1004.9 - -
20/02:50pm 19.0 14.3 14.8 76 2.4 ENE 33 35 18 19 1005.1 - -
20/02:40pm 19.0 14.5 14.8 76 2.4 ENE 32 33 17 18 1005.3 - -
20/02:30pm 19.0 14.4 14.7 76 2.5 ENE 32 35 17 19 1005.3 - -
20/02:20pm 19.2 14.7 15.0 76 2.5 ENE 32 35 17 19 1005.4 - -
20/02:10pm 18.9 14.3 14.6 76 2.5 ENE 32 35 17 19 1005.6 - -
20/02:00pm 19.0 14.2 14.6 75 2.6 ENE 33 37 18 20 1005.8 - -
20/01:50pm 19.3 14.2 14.9 75 2.6 NE 35 39 19 21 1006.0 - -
20/01:40pm 19.0 13.9 14.8 76 2.4 NE 35 37 19 20 1006.3 - -
20/01:30pm 18.9 14.1 14.6 76 2.5 NE 33 37 18 20 1006.5 - -
20/01:20pm 18.8 14.0 14.5 76 2.5 NE 33 35 18 19 1006.7 - -
20/01:10pm 19.0 14.1 14.4 74 2.7 NE 33 37 18 20 1006.7 - -
20/01:00pm 19.2 14.1 14.8 75 2.6 NE 35 37 19 20 1006.9 - -
20/12:50pm 18.9 14.1 14.6 76 2.5 NE 33 37 18 20 1007.0 - -
20/12:40pm 18.8 14.0 14.5 76 2.5 NE 33 35 18 19 1007.2 - -
20/12:30pm 18.8 14.0 14.5 76 2.5 NE 33 35 18 19 1007.4 - -
20/12:20pm 18.9 14.6 14.5 75 2.6 NE 30 35 16 19 1007.6 - -
20/12:10pm 18.9 14.6 14.5 75 2.6 NE 30 33 16 18 1007.8 - -
20/12:00pm 18.9 14.6 14.4 75 2.6 NE 30 33 16 18 1007.8 - -
20/11:50am 18.9 14.0 14.4 75 2.6 NE 33 35 18 19 1007.7 - -
20/11:40am 18.9 14.0 14.3 74 2.7 NE 33 37 18 20 1007.7 - -
20/11:30am 19.0 14.3 14.3 74 2.7 NE 32 35 17 19 1007.9 - -
20/11:20am 19.3 14.4 14.3 73 2.9 NE 33 37 18 20 1007.9 - -
20/11:10am 19.5 14.6 14.4 72 3.0 NE 33 37 18 20 1008.0 - -
20/11:00am 19.6 14.7 14.4 72 3.0 NE 33 37 18 20 1008.1 - -
20/10:50am 19.6 14.4 14.6 73 2.9 NE 35 37 19 20 1008.2 - -
20/10:40am 19.3 14.0 14.1 72 3.0 NE 35 37 19 20 1008.4 - -
20/10:30am 19.8 14.9 14.2 70 3.2 NE 33 35 18 19 1008.6 - -
20/10:20am 20.0 15.3 14.4 70 3.3 NE 32 35 17 19 1008.7 - -
20/10:10am 19.8 15.1 14.4 71 3.1 NE 32 35 17 19 1008.8 - -
20/10:00am 19.4 14.5 14.3 72 3.0 NE 33 37 18 20 1008.9 - -
20/09:40am 19.0 14.0 14.0 73 2.9 NE 33 37 18 20 1008.9 - -
20/09:30am 19.3 13.9 14.0 71 3.1 NE 35 37 19 20 1008.9 - -
20/09:20am 19.5 14.6 14.2 71 3.1 NE 33 35 18 19 1009.1 - -
20/09:10am 19.6 15.0 14.5 72 3.0 NE 32 35 17 19 1009.2 - -
20/09:00am 19.2 14.5 14.4 74 2.8 NE 32 33 17 18 1009.3 - -
20/08:50am 18.8 14.1 14.2 74 2.7 NE 32 35 17 19 1009.3 - -
20/08:40am 18.9 14.2 14.3 74 2.7 NE 32 35 17 19 1009.2 - -
20/08:20am 18.5 13.6 14.2 76 2.5 NE 33 35 18 19 1009.2 - -
20/08:10am 18.5 13.5 14.1 75 2.5 NE 33 35 18 19 1009.3 - -
20/08:00am 18.7 13.8 14.2 75 2.6 NE 33 35 18 19 1009.2 - -
20/07:50am 18.8 14.0 14.6 76 2.4 NE 33 37 18 20 1009.2 - -
20/07:30am 18.3 13.5 14.6 79 2.1 NE 33 37 18 20 1009.3 - -
20/07:20am 17.9 13.1 14.5 80 2.0 NE 33 35 18 19 1009.4 - -
20/07:10am 17.6 12.7 14.4 81 1.8 NE 33 37 18 20 1009.4 - -
20/07:00am 17.4 12.5 14.3 82 1.8 NE 33 37 18 20 1009.4 - -
20/06:50am 17.3 12.0 14.2 82 1.8 NE 35 39 19 21 1009.4 - -
20/06:40am 17.3 11.6 14.2 82 1.8 NE 37 41 20 22 1009.3 - -
20/06:30am 17.3 11.6 14.2 82 1.8 NE 37 41 20 22 1009.3 - -
20/06:20am 17.3 11.6 14.2 82 1.8 NE 37 41 20 22 1009.4 - -
20/06:10am 17.3 11.2 14.2 82 1.8 NE 39 44 21 24 1009.4 - -
20/06:00am 17.3 11.2 14.2 82 1.8 NE 39 43 21 23 1009.5 - -
20/05:50am 17.3 11.2 14.2 82 1.8 NE 39 44 21 24 1009.5 - -
20/05:40am 17.4 11.0 14.2 81 1.8 NE 41 46 22 25 1009.4 - -
20/05:30am 17.4 11.0 14.2 81 1.8 NE 41 46 22 25 1009.5 - -
20/05:20am 17.4 11.0 14.2 81 1.8 NE 41 46 22 25 1009.6 - -
20/05:10am 17.4 10.6 14.2 81 1.8 NE 43 46 23 25 1009.7 - -
20/05:00am 17.4 10.6 14.2 81 1.8 NE 43 46 23 25 1009.8 - -
20/04:50am 17.4 10.6 14.2 81 1.8 NE 43 46 23 25 1009.9 - -
20/04:30am 17.3 10.3 14.2 82 1.8 NE 44 50 24 27 1010.1 - -
20/04:20am 17.3 10.2 14.1 81 1.8 NE 44 50 24 27 1010.2 - -
20/04:10am 17.3 10.2 14.1 81 1.8 NE 44 52 24 28 1010.2 - -
20/04:00am 17.3 10.2 14.1 81 1.8 NE 44 52 24 28 1010.3 - -
20/03:50am 17.3 9.9 14.1 81 1.8 NE 46 56 25 30 1010.4 - -
20/03:40am 17.3 9.9 14.1 81 1.8 NE 46 50 25 27 1010.6 - -
20/03:30am 17.3 10.2 14.1 81 1.8 NE 44 52 24 28 1010.8 - -
20/03:20am 17.3 10.2 14.1 81 1.8 ENE 44 52 24 28 1011.1 - -
20/03:10am 17.3 10.2 14.1 81 1.8 ENE 44 50 24 27 1011.3 - -
20/03:00am 17.3 10.3 14.2 82 1.8 ENE 44 50 24 27 1011.6 - -
20/02:50am 17.3 10.3 14.2 82 1.8 ENE 44 50 24 27 1011.8 - -
20/02:40am 17.4 10.4 14.2 81 1.8 ENE 44 52 24 28 1012.0 - -
20/02:30am 17.4 10.4 14.2 81 1.8 ENE 44 52 24 28 1012.1 - -
20/02:20am 17.4 10.4 14.2 81 1.8 ENE 44 50 24 27 1012.3 - -
20/01:10am 17.5 10.7 14.3 81 1.8 ENE 43 50 23 27 1013.7 - -
20/01:00am 17.5 10.7 14.3 81 1.8 ENE 43 50 23 27 1013.8 - -
20/12:40am 17.5 11.1 14.3 81 1.8 ENE 41 52 22 28 1014.0 - -
20/12:30am 17.5 11.1 14.3 81 1.8 ENE 41 52 22 28 1014.1 - -
 
Date/Time
EDT
Temp
°C
App
Temp
°C
Dew
Point
°C
Rel
Hum
%
Delta-T
°C
Wind Press
QNH
hPa
Press
MSL
hPa
Rain since
9am
mm
Dir  Spd
km/h
Gust
km/h
Spd
kts
Gust
kts
19/11:30pm 17.7 10.7 14.3 80 2.0 ENE 44 57 24 31 1014.4 - -
19/11:20pm 17.7 10.9 14.3 80 2.0 ENE 43 57 23 31 1014.3 - -
19/11:10pm 17.7 10.7 14.3 80 2.0 ENE 44 59 24 32 1014.3 - -
19/11:00pm 17.7 10.7 14.3 80 2.0 ENE 44 56 24 30 1014.4 - -
19/10:50pm 17.8 10.4 14.2 79 2.1 ENE 46 59 25 32 1014.3 - -
19/10:40pm 17.8 10.4 14.2 79 2.1 ENE 46 57 25 31 1014.3 - -
19/10:30pm 17.8 10.8 14.2 79 2.1 ENE 44 57 24 31 1014.3 - -
19/10:20pm 17.8 10.7 14.1 79 2.1 ENE 44 61 24 33 1014.3 - -
19/10:10pm 17.8 10.9 14.1 79 2.1 ENE 43 56 23 30 1014.3 - -
19/10:00pm 17.7 10.6 14.1 79 2.1 ENE 44 56 24 30 1014.2 - -
19/09:50pm 17.7 10.7 14.2 80 2.0 ENE 44 56 24 30 1014.2 - -
19/09:40pm 17.6 10.6 14.3 81 1.9 ENE 44 54 24 29 1014.1 - -
19/09:30pm 17.5 10.6 14.4 82 1.8 ENE 44 57 24 31 1014.1 - -
19/09:20pm 17.5 10.8 14.5 82 1.7 ENE 43 52 23 28 1014.2 - -
19/09:10pm 17.5 10.6 14.5 82 1.7 ENE 44 57 24 31 1014.1 - -
19/09:00pm 17.5 10.6 14.6 83 1.7 ENE 44 56 24 30 1014.1 - -
19/08:50pm 17.5 10.2 14.6 83 1.7 ENE 46 56 25 30 1014.1 - -
19/08:40pm 17.5 10.2 14.5 82 1.7 ENE 46 57 25 31 1014.2 - -
19/08:30pm 17.5 9.8 14.5 82 1.7 ENE 48 61 26 33 1014.2 - -
19/08:20pm 17.6 10.3 14.5 82 1.8 ENE 46 57 25 31 1014.3 - -
19/08:10pm 17.5 10.6 14.5 82 1.7 ENE 44 56 24 30 1014.3 - -
19/08:00pm 17.5 10.8 14.5 82 1.7 ENE 43 56 23 30 1014.3 - -
19/07:50pm 17.5 10.2 14.5 82 1.7 ENE 46 57 25 31 1014.2 - -
19/07:40pm 17.5 10.6 14.5 82 1.7 ENE 44 54 24 29 1014.3 - -
19/07:30pm 17.5 10.8 14.5 82 1.7 ENE 43 54 23 29 1014.3 - -
19/07:10pm 17.5 10.7 14.4 82 1.8 ENE 43 54 23 29 1014.4 - -
19/07:00pm 17.5 10.7 14.3 81 1.8 ENE 43 56 23 30 1014.4 - -
19/06:50pm 17.5 10.7 14.3 81 1.8 ENE 43 54 23 29 1014.5 - -
19/06:40pm 17.4 10.4 14.3 82 1.8 ENE 44 52 24 28 1014.5 - -
19/06:30pm 17.5 10.5 14.3 81 1.8 ENE 44 56 24 30 1014.5 - -
19/06:20pm 17.5 10.5 14.3 81 1.8 ENE 44 56 24 30 1014.6 - -
19/06:10pm 17.4 10.0 14.2 81 1.8 ENE 46 56 25 30 1014.5 - -
19/06:00pm 17.4 9.6 14.2 81 1.8 ENE 48 57 26 31 1014.5 - -
19/05:50pm 17.4 10.0 14.2 81 1.8 ENE 46 56 25 30 1014.6 - -
19/05:40pm 17.4 10.0 14.2 81 1.8 ENE 46 59 25 32 1014.7 - -
19/05:30pm 17.4 10.0 14.2 81 1.8 ENE 46 56 25 30 1014.8 - -
19/05:20pm 17.4 10.0 14.2 81 1.8 ENE 46 57 25 31 1014.8 - -
19/05:10pm 17.4 10.0 14.1 81 1.9 ENE 46 56 25 30 1014.9 - -
19/05:00pm 17.4 10.3 14.1 81 1.9 ENE 44 54 24 29 1015.1 - -
19/04:50pm 17.4 10.0 14.1 81 1.9 ENE 46 56 25 30 1015.3 - -
19/04:40pm 17.5 10.6 14.1 80 1.9 ENE 43 54 23 29 1015.5 - -
19/04:30pm 17.5 10.6 14.0 80 2.0 ENE 43 54 23 29 1015.6 - -
19/04:20pm 17.4 10.3 13.9 80 2.0 ENE 44 54 24 29 1015.8 - -
19/04:10pm 17.4 10.2 13.8 79 2.0 ENE 44 56 24 30 1016.0 - -
19/04:00pm 17.4 10.4 13.8 79 2.0 ENE 43 54 23 29 1016.2 - -
19/03:50pm 17.4 10.8 13.8 79 2.0 ENE 41 50 22 27 1016.3 - -
19/03:40pm 17.4 10.2 13.7 79 2.1 ENE 44 54 24 29 1016.4 - -
19/03:30pm 17.4 10.8 13.6 78 2.2 ENE 41 52 22 28 1016.5 - -
19/03:20pm 17.3 9.7 13.5 78 2.1 ENE 46 59 25 32 1016.5 - -
19/03:10pm 17.4 10.1 13.5 78 2.2 ENE 44 57 24 31 1016.7 - -
19/03:00pm 17.4 9.7 13.4 77 2.3 ENE 46 56 25 30 1016.8 - -
19/02:50pm 17.4 9.7 13.4 77 2.3 ENE 46 57 25 31 1016.8 - -
19/02:40pm 17.4 10.3 13.3 77 2.3 ENE 43 56 23 30 1017.0 - -
19/02:30pm 17.5 10.2 13.3 76 2.4 ENE 44 56 24 30 1017.1 - -
19/02:10pm 17.6 9.8 13.1 75 2.5 ENE 46 54 25 29 1017.4 - -
19/02:00pm 17.6 10.8 13.0 74 2.6 ENE 41 52 22 28 1017.5 - -
19/01:10pm 17.8 11.2 12.7 72 2.8 ENE 39 56 21 30 1017.9 - -
19/01:00pm 17.9 11.0 12.7 71 2.9 ENE 41 52 22 28 1018.0 - -
19/12:50pm 18.0 11.4 12.7 71 3.0 ENE 39 50 21 27 1018.2 - -
19/12:40pm 17.9 10.9 12.5 70 3.0 ENE 41 50 22 27 1018.3 - -
19/12:30pm 17.9 10.8 12.3 70 3.1 ENE 41 48 22 26 1018.4 - -
19/12:20pm 18.0 11.0 12.4 70 3.1 ENE 41 50 22 27 1018.5 - -
19/12:10pm 18.1 11.1 12.4 69 3.2 ENE 41 52 22 28 1018.6 - -
19/12:00pm 18.1 10.7 12.3 69 3.2 ENE 43 54 23 29 1018.8 - -
19/11:50am 18.0 11.3 12.2 69 3.2 ENE 39 54 21 29 1018.8 - -
19/11:40am 18.2 11.1 12.1 67 3.4 ENE 41 48 22 26 1018.7 - -
19/11:30am 18.1 10.3 11.8 66 3.5 ENE 44 54 24 29 1018.8 - -
19/11:20am 18.0 10.8 12.0 68 3.3 ENE 41 52 22 28 1018.9 - -
19/11:10am 18.1 10.5 11.9 67 3.4 ENE 43 56 23 30 1018.9 - -
19/11:00am 18.3 10.8 12.0 66 3.5 ENE 43 54 23 29 1019.0 - -
19/10:20am 18.4 10.8 11.7 65 3.7 ENE 43 57 23 31 1019.1 - -
19/10:10am 18.3 10.4 11.5 64 3.7 ENE 44 54 24 29 1019.1 - -
19/10:00am 18.3 10.5 11.7 65 3.6 ENE 44 57 24 31 1019.2 - -
19/09:50am 18.4 10.2 11.6 64 3.7 ENE 46 61 25 33 1019.3 - -
19/09:40am 18.4 9.7 11.4 63 3.8 ENE 48 63 26 34 1019.2 - -
19/09:30am 18.4 10.6 11.9 66 3.6 ENE 44 56 24 30 1019.3 - -
19/08:40am 18.4 9.8 11.5 64 3.8 ENE 48 59 26 32 1019.2 - -
19/08:30am 18.3 10.5 11.8 66 3.6 ENE 44 56 24 30 1019.3 - -
19/08:20am 18.3 10.7 11.9 66 3.5 ENE 43 56 23 30 1019.3 - -
19/08:10am 18.4 10.9 12.0 66 3.5 ENE 43 54 23 29 1019.2 - -
19/07:50am 17.9 10.1 11.9 68 3.3 ENE 44 56 24 30 1019.1 - -
19/07:40am 17.7 10.1 11.9 69 3.2 ENE 43 52 23 28 1019.1 - -
19/07:30am 17.7 9.9 11.9 69 3.2 ENE 44 56 24 30 1019.0 - -
19/07:20am 17.4 9.6 11.9 70 3.0 ENE 44 54 24 29 1018.9 - -
19/07:10am 17.1 8.9 11.8 71 2.9 ENE 46 57 25 31 1018.8 - -
19/07:00am 16.9 9.1 11.7 71 2.8 ENE 44 54 24 29 1018.7 - -
19/06:50am 16.9 8.7 11.8 72 2.8 ENE 46 57 25 31 1018.7 - -
19/06:40am 16.9 9.1 11.9 72 2.7 ENE 44 54 24 29 1018.7 - -
19/06:30am 16.9 9.1 11.9 72 2.7 ENE 44 56 24 30 1018.7 - -
19/06:20am 16.9 9.1 11.8 72 2.8 ENE 44 54 24 29 1018.6 - -
19/06:10am 16.9 9.1 11.8 72 2.8 ENE 44 57 24 31 1018.7 - -
19/05:50am 16.8 8.6 11.7 72 2.8 ENE 46 56 25 30 1018.6 - -
19/05:40am 16.9 9.1 11.9 72 2.7 ENE 44 56 24 30 1018.6 - -
19/04:50am 16.8 8.2 11.6 71 2.8 ENE 48 57 26 31 1018.7 - -
19/04:40am 16.8 8.6 11.6 71 2.8 ENE 46 57 25 31 1018.8 - -
19/04:30am 16.8 8.6 11.7 72 2.8 ENE 46 57 25 31 1018.9 - -
19/04:20am 16.8 8.2 11.6 71 2.8 ENE 48 59 26 32 1019.0 - -
19/04:10am 16.8 8.6 11.6 71 2.8 ENE 46 57 25 31 1019.1 - -
19/04:00am 16.8 8.5 11.5 71 2.9 ENE 46 59 25 32 1019.2 - -
19/03:50am 16.8 8.2 11.5 71 2.9 ENE 48 59 26 32 1019.2 - -
19/03:40am 16.8 8.9 11.6 71 2.8 ENE 44 56 24 30 1019.3 - -
19/03:30am 16.8 8.9 11.5 71 2.9 ENE 44 57 24 31 1019.5 - -
19/03:20am 16.8 8.9 11.5 71 2.9 ENE 44 56 24 30 1019.6 - -
19/03:10am 16.8 8.2 11.5 71 2.9 ENE 48 57 26 31 1019.6 - -
19/03:00am 16.9 9.0 11.5 70 2.9 ENE 44 56 24 30 1019.6 - -
19/02:50am 16.9 8.6 11.4 70 3.0 ENE 46 59 25 32 1019.7 - -
19/02:40am 17.4 8.1 11.7 69 3.1 ENE 52 61 28 33 1019.9 - -
19/02:30am 17.0 8.4 11.6 70 2.9 ENE 48 57 26 31 1020.0 - -
19/02:20am 17.0 8.4 11.6 70 2.9 ENE 48 59 26 32 1020.2 - -
19/02:10am 16.9 8.6 11.5 70 2.9 ENE 46 56 25 30 1020.3 - -
19/02:00am 16.9 7.5 11.4 70 3.0 ENE 52 59 28 32 1020.4 - -
19/01:50am 16.9 8.3 11.6 71 2.9 ENE 48 57 26 31 1020.5 - -
19/01:40am 16.9 8.3 11.5 70 2.9 ENE 48 63 26 34 1020.5 - -
19/01:30am 16.9 7.1 11.5 70 2.9 ENE 54 63 29 34 1020.5 - -
19/01:20am 17.0 8.4 11.6 70 2.9 ENE 48 57 26 31 1020.7 - -
19/01:10am 17.0 7.2 11.4 69 3.0 ENE 54 63 29 34 1020.6 - -
19/01:00am 17.0 7.9 11.4 69 3.0 ENE 50 63 27 34 1020.7 - -
19/12:50am 17.0 7.5 11.2 68 3.1 ENE 52 61 28 33 1020.7 - -
19/12:40am 17.0 8.3 11.3 69 3.1 ENE 48 59 26 32 1020.9 - -
19/12:30am 17.0 8.6 11.2 68 3.1 ENE 46 56 25 30 1021.1 - -
19/12:20am 17.0 7.9 11.3 69 3.1 ENE 50 61 27 33 1021.1 - -
19/12:10am 17.0 7.5 11.2 68 3.1 ENE 52 61 28 33 1021.1 - -
19/12:00am 17.0 7.1 11.1 68 3.2 ENE 54 63 29 34 1021.1 - -
 
Date/Time
EDT
Temp
°C
App
Temp
°C
Dew
Point
°C
Rel
Hum
%
Delta-T
°C
Wind Press
QNH
hPa
Press
MSL
hPa
Rain since
9am
mm
Dir  Spd
km/h
Gust
km/h
Spd
kts
Gust
kts
18/11:50pm 16.9 7.8 11.1 68 3.1 ENE 50 61 27 33 1021.1 - -
18/11:10pm 16.9 7.6 10.7 67 3.3 ENE 50 59 27 32 1021.3 - -
18/11:00pm 16.9 8.4 10.7 67 3.3 ENE 46 59 25 32 1021.3 - -
18/10:50pm 16.9 8.4 10.6 66 3.4 ENE 46 57 25 31 1021.2 - -
18/10:40pm 16.9 8.4 10.7 67 3.3 ENE 46 57 25 31 1021.1 - -
18/10:30pm 16.8 7.9 10.6 67 3.3 ENE 48 61 26 33 1021.1 - -
18/10:20pm 16.8 6.7 10.4 66 3.4 ENE 54 67 29 36 1021.0 - -
18/10:10pm 16.8 8.3 10.8 67 3.2 ENE 46 63 25 34 1021.0 - -
18/10:00pm 16.8 7.6 10.8 67 3.2 ENE 50 63 27 34 1021.1 - -
18/09:20pm 16.8 8.8 11.2 69 3.0 ENE 44 57 24 31 1021.4 - -
18/09:10pm 16.8 9.4 11.1 69 3.1 ENE 41 54 22 29 1021.5 - -
18/09:00pm 16.8 8.9 10.9 68 3.2 ENE 43 54 23 29 1021.6 - -
18/08:50pm 16.8 9.0 11.0 68 3.1 ENE 43 54 23 29 1021.6 - -
18/08:40pm 16.9 9.9 11.3 69 3.0 ENE 39 50 21 27 1021.6 - -
18/08:30pm 16.9 9.1 11.2 69 3.1 ENE 43 57 23 31 1021.5 - -
18/08:20pm 16.9 8.1 11.1 68 3.1 ENE 48 56 26 30 1021.4 - -
18/08:10pm 16.9 8.8 10.9 67 3.2 ENE 44 54 24 29 1021.2 - -
18/08:00pm 17.0 8.5 10.7 66 3.4 ENE 46 57 25 31 1021.2 - -
18/07:50pm 17.0 7.7 10.6 66 3.4 ENE 50 59 27 32 1021.1 - -
18/07:30pm 17.1 7.7 10.2 64 3.7 ENE 50 57 27 31 1021.1 - -
18/07:20pm 17.1 8.0 9.9 62 3.8 ENE 48 59 26 32 1021.1 - -
18/07:10pm 17.2 8.5 10.1 63 3.8 ENE 46 56 25 30 1021.2 - -
18/07:00pm 17.2 8.1 9.9 62 3.9 ENE 48 57 26 31 1021.2 - -
18/06:50pm 17.1 7.5 9.4 60 4.0 ENE 50 57 27 31 1021.2 - -
18/06:20pm 17.0 8.6 9.6 61 3.9 ENE 44 56 24 30 1021.5 - -
18/06:10pm 17.0 8.9 10.1 64 3.6 E 43 54 23 29 1021.5 - -
18/06:00pm 17.0 8.7 10.2 64 3.6 ENE 44 54 24 29 1021.4 - -
18/05:50pm 16.9 9.0 10.7 67 3.3 E 43 52 23 28 1021.4 - -
18/05:40pm 16.8 8.3 10.6 67 3.3 E 46 54 25 29 1021.5 - -
18/05:20pm 16.7 9.2 10.8 68 3.2 ENE 41 50 22 27 1021.6 - -
18/05:10pm 16.8 8.4 10.9 68 3.2 E 46 54 25 29 1021.7 - -
18/05:00pm 16.7 8.3 11.0 69 3.1 E 46 54 25 29 1021.7 - -
18/04:50pm 16.7 8.7 11.0 69 3.1 E 44 50 24 27 1021.9 - -
18/04:40pm 16.8 8.7 10.9 68 3.2 E 44 50 24 27 1022.0 - -
18/04:30pm 16.7 8.6 10.8 68 3.2 E 44 50 24 27 1022.2 - -
18/04:20pm 16.8 8.9 10.7 67 3.3 E 43 48 23 26 1022.4 - -
18/04:10pm 16.7 8.6 10.2 65 3.4 E 43 48 23 26 1022.5 - -
18/03:30pm 16.6 10.2 10.7 68 3.1 E 35 41 19 22 1023.2 - -
18/03:20pm 16.6 9.7 10.4 67 3.3 E 37 41 20 22 1023.3 - -
18/03:10pm 16.5 9.6 10.2 66 3.3 E 37 41 20 22 1023.3 - -
18/02:50pm 16.6 10.1 10.5 67 3.2 ENE 35 41 19 22 1023.5 - -
18/02:40pm 16.6 10.4 10.2 66 3.4 ENE 33 39 18 21 1023.5 - -
18/02:30pm 16.7 11.6 10.5 67 3.3 ENE 28 39 15 21 1023.7 - -
18/02:20pm 16.7 11.5 10.3 66 3.4 ENE 28 35 15 19 1023.9 - -
18/01:30pm 17.0 11.8 10.1 64 3.6 ENE 28 35 15 19 1024.2 - -
18/01:20pm 17.0 12.5 10.1 64 3.6 ENE 24 30 13 16 1024.3 - -
18/01:10pm 17.1 12.2 10.1 63 3.7 ENE 26 33 14 18 1024.4 - -
18/01:00pm 17.5 13.0 9.9 61 4.0 ENE 24 32 13 17 1024.5 - -
18/12:50pm 17.5 13.3 9.9 61 4.0 ENE 22 28 12 15 1024.7 - -

Other Formats:

Comma delimited format used in spreadsheet applications
http://www.bom.gov.au/fwo/IDV60801/IDV60801.55039.axf

JavaScript Object Notation format (JSON) in row-major order
http://www.bom.gov.au/fwo/IDV60801/IDV60801.55039.json